sensor_id;sensor_type;location;lat;lon;timestamp;temperature;humidity
2653;DHT22;1336;48.692;9.144;2022-11-15T06:00:15;9.70;97.20
2653;DHT22;1336;48.692;9.144;2022-11-15T06:01:07;9.70;97.20
2653;DHT22;1336;48.692;9.144;2022-11-15T06:01:58;9.70;97.20
2653;DHT22;1336;48.692;9.144;2022-11-15T06:02:50;9.70;97.20
2653;DHT22;1336;48.692;9.144;2022-11-15T06:03:40;9.70;97.20
2653;DHT22;1336;48.692;9.144;2022-11-15T06:04:32;9.70;97.20
2653;DHT22;1336;48.692;9.144;2022-11-15T06:05:23;9.70;97.20
2653;DHT22;1336;48.692;9.144;2022-11-15T06:06:15;9.70;97.20
2653;DHT22;1336;48.692;9.144;2022-11-15T06:07:05;9.70;97.20
2653;DHT22;1336;48.692;9.144;2022-11-15T06:07:57;9.70;97.20
2653;DHT22;1336;48.692;9.144;2022-11-15T06:08:49;9.70;97.20
2653;DHT22;1336;48.692;9.144;2022-11-15T06:09:40;9.70;97.20
2653;DHT22;1336;48.692;9.144;2022-11-15T06:10:32;9.70;97.20
2653;DHT22;1336;48.692;9.144;2022-11-15T06:11:23;9.70;97.20
2653;DHT22;1336;48.692;9.144;2022-11-15T06:12:14;9.70;97.20
2653;DHT22;1336;48.692;9.144;2022-11-15T06:13:06;9.70;97.20
2653;DHT22;1336;48.692;9.144;2022-11-15T06:13:57;9.70;97.20
2653;DHT22;1336;48.692;9.144;2022-11-15T06:14:48;9.70;97.20
2653;DHT22;1336;48.692;9.144;2022-11-15T06:15:40;9.70;97.20
2653;DHT22;1336;48.692;9.144;2022-11-15T06:16:32;9.70;97.20
2653;DHT22;1336;48.692;9.144;2022-11-15T06:17:23;9.70;97.20
2653;DHT22;1336;48.692;9.144;2022-11-15T06:18:14;9.70;97.20
2653;DHT22;1336;48.692;9.144;2022-11-15T06:19:05;9.70;97.20
2653;DHT22;1336;48.692;9.144;2022-11-15T06:19:57;9.70;97.20
2653;DHT22;1336;48.692;9.144;2022-11-15T06:20:48;9.70;97.20
2653;DHT22;1336;48.692;9.144;2022-11-15T06:21:39;9.70;97.20
2653;DHT22;1336;48.692;9.144;2022-11-15T06:22:30;9.70;97.20
2653;DHT22;1336;48.692;9.144;2022-11-15T06:23:22;9.70;97.20
2653;DHT22;1336;48.692;9.144;2022-11-15T06:24:13;9.70;97.20
2653;DHT22;1336;48.692;9.144;2022-11-15T06:25:05;9.70;97.20
2653;DHT22;1336;48.692;9.144;2022-11-15T06:25:57;9.70;97.20
2653;DHT22;1336;48.692;9.144;2022-11-15T06:26:49;9.70;97.20
2653;DHT22;1336;48.692;9.144;2022-11-15T06:27:40;9.70;97.20
2653;DHT22;1336;48.692;9.144;2022-11-15T06:28:32;9.70;97.20
2653;DHT22;1336;48.692;9.144;2022-11-15T06:29:23;9.70;97.20
2653;DHT22;1336;48.692;9.144;2022-11-15T06:30:16;9.60;97.20
2653;DHT22;1336;48.692;9.144;2022-11-15T06:31:09;9.60;97.20
2653;DHT22;1336;48.692;9.144;2022-11-15T06:32:02;9.60;97.20
2653;DHT22;1336;48.692;9.144;2022-11-15T06:32:58;9.60;97.20
2653;DHT22;1336;48.692;9.144;2022-11-15T06:33:50;9.60;97.20
2653;DHT22;1336;48.692;9.144;2022-11-15T06:34:41;9.60;97.20
2653;DHT22;1336;48.692;9.144;2022-11-15T06:35:34;9.60;97.20
2653;DHT22;1336;48.692;9.144;2022-11-15T06:36:25;9.60;97.20
2653;DHT22;1336;48.692;9.144;2022-11-15T06:37:17;9.60;97.20
2653;DHT22;1336;48.692;9.144;2022-11-15T06:38:09;9.60;97.20
2653;DHT22;1336;48.692;9.144;2022-11-15T06:39:01;9.60;97.20
2653;DHT22;1336;48.692;9.144;2022-11-15T06:39:52;9.60;97.20
2653;DHT22;1336;48.692;9.144;2022-11-15T06:40:44;9.60;97.20
2653;DHT22;1336;48.692;9.144;2022-11-15T06:41:35;9.60;97.20
2653;DHT22;1336;48.692;9.144;2022-11-15T06:42:27;9.60;97.20
2653;DHT22;1336;48.692;9.144;2022-11-15T06:43:17;9.60;97.20
2653;DHT22;1336;48.692;9.144;2022-11-15T06:44:09;9.60;97.20
2653;DHT22;1336;48.692;9.144;2022-11-15T06:45:00;9.60;97.20
2653;DHT22;1336;48.692;9.144;2022-11-15T06:45:52;9.60;97.20
2653;DHT22;1336;48.692;9.144;2022-11-15T06:46:44;9.60;97.20
2653;DHT22;1336;48.692;9.144;2022-11-15T06:47:35;9.60;97.20
2653;DHT22;1336;48.692;9.144;2022-11-15T06:48:26;9.60;97.20
2653;DHT22;1336;48.692;9.144;2022-11-15T06:49:18;9.60;97.20
2653;DHT22;1336;48.692;9.144;2022-11-15T06:50:09;9.60;97.20
2653;DHT22;1336;48.692;9.144;2022-11-15T06:51:02;9.60;97.20
2653;DHT22;1336;48.692;9.144;2022-11-15T06:51:53;9.60;97.20
2653;DHT22;1336;48.692;9.144;2022-11-15T06:52:45;9.60;97.20
2653;DHT22;1336;48.692;9.144;2022-11-15T06:53:36;9.60;97.20
2653;DHT22;1336;48.692;9.144;2022-11-15T06:54:27;9.60;97.20
2653;DHT22;1336;48.692;9.144;2022-11-15T06:55:18;9.60;97.20
2653;DHT22;1336;48.692;9.144;2022-11-15T06:56:10;9.60;97.20
2653;DHT22;1336;48.692;9.144;2022-11-15T06:57:01;9.60;97.20
2653;DHT22;1336;48.692;9.144;2022-11-15T06:57:53;9.60;97.20
2653;DHT22;1336;48.692;9.144;2022-11-15T06:58:43;9.60;97.20
2653;DHT22;1336;48.692;9.144;2022-11-15T06:59:35;9.60;97.20
2653;DHT22;1336;48.692;9.144;2022-11-15T07:00:26;9.60;97.20
2653;DHT22;1336;48.692;9.144;2022-11-15T07:01:17;9.60;97.20
2653;DHT22;1336;48.692;9.144;2022-11-15T07:02:13;9.70;97.20
2653;DHT22;1336;48.692;9.144;2022-11-15T07:03:05;9.70;97.20
2653;DHT22;1336;48.692;9.144;2022-11-15T07:03:56;9.70;97.20
2653;DHT22;1336;48.692;9.144;2022-11-15T07:04:47;9.70;97.20
2653;DHT22;1336;48.692;9.144;2022-11-15T07:05:38;9.70;97.20
2653;DHT22;1336;48.692;9.144;2022-11-15T07:06:30;9.70;97.20
2653;DHT22;1336;48.692;9.144;2022-11-15T07:07:21;9.70;97.20
2653;DHT22;1336;48.692;9.144;2022-11-15T07:08:12;9.70;97.20
2653;DHT22;1336;48.692;9.144;2022-11-15T07:09:03;9.70;97.20
2653;DHT22;1336;48.692;9.144;2022-11-15T07:09:55;9.70;97.20
2653;DHT22;1336;48.692;9.144;2022-11-15T07:10:45;9.70;97.20
2653;DHT22;1336;48.692;9.144;2022-11-15T07:11:37;9.70;97.20
2653;DHT22;1336;48.692;9.144;2022-11-15T07:12:28;9.70;97.20
2653;DHT22;1336;48.692;9.144;2022-11-15T07:13:20;9.70;97.20
2653;DHT22;1336;48.692;9.144;2022-11-15T07:14:14;9.70;97.20
2653;DHT22;1336;48.692;9.144;2022-11-15T07:15:07;9.70;97.20
2653;DHT22;1336;48.692;9.144;2022-11-15T07:15:58;9.70;97.20
2653;DHT22;1336;48.692;9.144;2022-11-15T07:16:49;9.70;97.20
2653;DHT22;1336;48.692;9.144;2022-11-15T07:17:42;9.70;97.20
2653;DHT22;1336;48.692;9.144;2022-11-15T07:18:34;9.70;97.20
2653;DHT22;1336;48.692;9.144;2022-11-15T07:19:25;9.70;97.20
2653;DHT22;1336;48.692;9.144;2022-11-15T07:20:18;9.70;97.20
2653;DHT22;1336;48.692;9.144;2022-11-15T07:21:10;9.80;97.20
2653;DHT22;1336;48.692;9.144;2022-11-15T07:22:03;9.80;97.20
2653;DHT22;1336;48.692;9.144;2022-11-15T07:22:59;9.80;97.20
2653;DHT22;1336;48.692;9.144;2022-11-15T07:23:51;9.80;97.20
2653;DHT22;1336;48.692;9.144;2022-11-15T07:24:42;9.80;97.20
2653;DHT22;1336;48.692;9.144;2022-11-15T07:25:33;9.80;97.20
2653;DHT22;1336;48.692;9.144;2022-11-15T07:26:25;9.80;97.20
2653;DHT22;1336;48.692;9.144;2022-11-15T07:27:16;9.80;97.20
2653;DHT22;1336;48.692;9.144;2022-11-15T07:28:07;9.80;97.20
2653;DHT22;1336;48.692;9.144;2022-11-15T07:28:59;9.90;97.20
2653;DHT22;1336;48.692;9.144;2022-11-15T07:29:49;9.90;97.20
2653;DHT22;1336;48.692;9.144;2022-11-15T07:30:41;9.90;97.20
2653;DHT22;1336;48.692;9.144;2022-11-15T07:31:32;9.90;97.20
2653;DHT22;1336;48.692;9.144;2022-11-15T07:32:24;9.90;97.20
2653;DHT22;1336;48.692;9.144;2022-11-15T07:33:16;9.90;97.20
2653;DHT22;1336;48.692;9.144;2022-11-15T07:34:07;9.90;97.20
2653;DHT22;1336;48.692;9.144;2022-11-15T07:35:00;9.90;97.20
2653;DHT22;1336;48.692;9.144;2022-11-15T07:35:51;9.90;97.20
2653;DHT22;1336;48.692;9.144;2022-11-15T07:36:42;9.90;97.20
2653;DHT22;1336;48.692;9.144;2022-11-15T07:37:34;10.00;97.20
2653;DHT22;1336;48.692;9.144;2022-11-15T07:38:25;10.00;97.20
2653;DHT22;1336;48.692;9.144;2022-11-15T07:39:16;10.00;97.20
2653;DHT22;1336;48.692;9.144;2022-11-15T07:40:08;10.00;97.20
2653;DHT22;1336;48.692;9.144;2022-11-15T07:41:02;10.00;97.20
2653;DHT22;1336;48.692;9.144;2022-11-15T07:41:53;10.10;97.20
2653;DHT22;1336;48.692;9.144;2022-11-15T07:43:07;10.10;97.20
2653;DHT22;1336;48.692;9.144;2022-11-15T07:43:58;10.10;97.20
2653;DHT22;1336;48.692;9.144;2022-11-15T07:44:50;10.10;97.20
2653;DHT22;1336;48.692;9.144;2022-11-15T07:45:42;10.20;97.20
2653;DHT22;1336;48.692;9.144;2022-11-15T07:46:34;10.20;97.20
2653;DHT22;1336;48.692;9.144;2022-11-15T07:47:25;10.20;97.20
2653;DHT22;1336;48.692;9.144;2022-11-15T07:48:20;10.20;97.20
2653;DHT22;1336;48.692;9.144;2022-11-15T07:49:11;10.30;97.20
2653;DHT22;1336;48.692;9.144;2022-11-15T07:50:04;10.30;97.20
2653;DHT22;1336;48.692;9.144;2022-11-15T07:50:54;10.30;97.20
2653;DHT22;1336;48.692;9.144;2022-11-15T07:51:46;10.30;97.20
2653;DHT22;1336;48.692;9.144;2022-11-15T07:52:37;10.40;97.20
2653;DHT22;1336;48.692;9.144;2022-11-15T07:53:29;10.40;97.20
2653;DHT22;1336;48.692;9.144;2022-11-15T07:54:19;10.50;97.20
2653;DHT22;1336;48.692;9.144;2022-11-15T07:55:11;10.50;97.20
2653;DHT22;1336;48.692;9.144;2022-11-15T07:56:02;10.60;97.20
2653;DHT22;1336;48.692;9.144;2022-11-15T07:56:56;10.60;97.20
2653;DHT22;1336;48.692;9.144;2022-11-15T07:57:47;10.70;97.20
2653;DHT22;1336;48.692;9.144;2022-11-15T07:58:39;10.70;97.20
2653;DHT22;1336;48.692;9.144;2022-11-15T07:59:30;10.70;97.20
2653;DHT22;1336;48.692;9.144;2022-11-15T08:00:22;10.80;97.20
2653;DHT22;1336;48.692;9.144;2022-11-15T08:01:12;10.80;97.20
2653;DHT22;1336;48.692;9.144;2022-11-15T08:02:04;10.80;97.20
2653;DHT22;1336;48.692;9.144;2022-11-15T08:03:02;10.80;97.20
2653;DHT22;1336;48.692;9.144;2022-11-15T08:03:55;10.90;97.20
2653;DHT22;1336;48.692;9.144;2022-11-15T08:04:45;10.90;97.20
2653;DHT22;1336;48.692;9.144;2022-11-15T08:05:38;10.90;97.20
2653;DHT22;1336;48.692;9.144;2022-11-15T08:06:30;11.00;97.20
2653;DHT22;1336;48.692;9.144;2022-11-15T08:07:21;11.00;97.20
2653;DHT22;1336;48.692;9.144;2022-11-15T08:08:12;11.00;97.20
2653;DHT22;1336;48.692;9.144;2022-11-15T08:09:04;11.10;97.20
2653;DHT22;1336;48.692;9.144;2022-11-15T08:09:55;11.10;97.20
2653;DHT22;1336;48.692;9.144;2022-11-15T08:10:46;11.10;97.20
2653;DHT22;1336;48.692;9.144;2022-11-15T08:11:38;11.20;97.20
2653;DHT22;1336;48.692;9.144;2022-11-15T08:12:29;11.20;97.20
2653;DHT22;1336;48.692;9.144;2022-11-15T08:13:20;11.20;97.20
2653;DHT22;1336;48.692;9.144;2022-11-15T08:14:11;11.30;97.20
2653;DHT22;1336;48.692;9.144;2022-11-15T08:15:03;11.30;97.20
2653;DHT22;1336;48.692;9.144;2022-11-15T08:15:58;11.30;97.20
2653;DHT22;1336;48.692;9.144;2022-11-15T08:16:50;11.40;97.20
2653;DHT22;1336;48.692;9.144;2022-11-15T08:17:40;11.40;97.20
2653;DHT22;1336;48.692;9.144;2022-11-15T08:18:32;11.50;97.20
2653;DHT22;1336;48.692;9.144;2022-11-15T08:19:24;11.50;97.20
2653;DHT22;1336;48.692;9.144;2022-11-15T08:20:16;11.50;97.20
2653;DHT22;1336;48.692;9.144;2022-11-15T08:21:09;11.50;97.20
2653;DHT22;1336;48.692;9.144;2022-11-15T08:22:03;11.60;97.20
2653;DHT22;1336;48.692;9.144;2022-11-15T08:22:53;11.60;97.20
2653;DHT22;1336;48.692;9.144;2022-11-15T08:23:45;11.60;97.20
2653;DHT22;1336;48.692;9.144;2022-11-15T08:24:36;11.70;97.20
2653;DHT22;1336;48.692;9.144;2022-11-15T08:25:29;11.70;97.20
2653;DHT22;1336;48.692;9.144;2022-11-15T08:26:20;11.70;97.20
2653;DHT22;1336;48.692;9.144;2022-11-15T08:27:12;11.80;97.20
2653;DHT22;1336;48.692;9.144;2022-11-15T08:28:07;11.80;97.20
2653;DHT22;1336;48.692;9.144;2022-11-15T08:28:59;11.80;97.20
2653;DHT22;1336;48.692;9.144;2022-11-15T08:29:50;11.80;97.20
2653;DHT22;1336;48.692;9.144;2022-11-15T08:30:42;11.90;97.20
2653;DHT22;1336;48.692;9.144;2022-11-15T08:31:34;11.90;97.20
2653;DHT22;1336;48.692;9.144;2022-11-15T08:32:26;11.90;97.20
2653;DHT22;1336;48.692;9.144;2022-11-15T08:33:17;11.90;97.20
2653;DHT22;1336;48.692;9.144;2022-11-15T08:34:09;12.00;97.20
2653;DHT22;1336;48.692;9.144;2022-11-15T08:35:01;12.00;97.20
2653;DHT22;1336;48.692;9.144;2022-11-15T08:35:56;12.00;97.20
2653;DHT22;1336;48.692;9.144;2022-11-15T08:36:46;12.10;97.20
2653;DHT22;1336;48.692;9.144;2022-11-15T08:37:38;12.10;97.20
2653;DHT22;1336;48.692;9.144;2022-11-15T08:38:29;12.10;97.20
2653;DHT22;1336;48.692;9.144;2022-11-15T08:39:21;12.20;97.20
2653;DHT22;1336;48.692;9.144;2022-11-15T08:40:12;12.20;97.20
2653;DHT22;1336;48.692;9.144;2022-11-15T08:41:04;12.20;97.20
2653;DHT22;1336;48.692;9.144;2022-11-15T08:41:56;12.30;97.20
2653;DHT22;1336;48.692;9.144;2022-11-15T08:42:48;12.30;97.20
2653;DHT22;1336;48.692;9.144;2022-11-15T08:43:39;12.40;97.20
2653;DHT22;1336;48.692;9.144;2022-11-15T08:44:30;12.40;97.20
2653;DHT22;1336;48.692;9.144;2022-11-15T08:45:21;12.50;97.20
2653;DHT22;1336;48.692;9.144;2022-11-15T08:46:13;12.50;97.20
2653;DHT22;1336;48.692;9.144;2022-11-15T08:47:04;12.60;97.20
2653;DHT22;1336;48.692;9.144;2022-11-15T08:47:56;12.70;97.20
2653;DHT22;1336;48.692;9.144;2022-11-15T08:48:47;12.70;97.20
2653;DHT22;1336;48.692;9.144;2022-11-15T08:49:39;12.80;97.20
2653;DHT22;1336;48.692;9.144;2022-11-15T08:50:31;12.90;97.20
2653;DHT22;1336;48.692;9.144;2022-11-15T08:51:23;12.90;97.20
2653;DHT22;1336;48.692;9.144;2022-11-15T08:52:14;13.00;97.20
2653;DHT22;1336;48.692;9.144;2022-11-15T08:53:06;13.00;97.20
2653;DHT22;1336;48.692;9.144;2022-11-15T08:53:57;13.10;97.20
2653;DHT22;1336;48.692;9.144;2022-11-15T08:54:49;13.10;97.20
2653;DHT22;1336;48.692;9.144;2022-11-15T08:55:40;13.20;97.20
2653;DHT22;1336;48.692;9.144;2022-11-15T08:56:32;13.20;97.20
2653;DHT22;1336;48.692;9.144;2022-11-15T08:57:24;13.30;97.20
2653;DHT22;1336;48.692;9.144;2022-11-15T08:58:15;13.30;97.20
2653;DHT22;1336;48.692;9.144;2022-11-15T08:59:07;13.40;97.20
2653;DHT22;1336;48.692;9.144;2022-11-15T08:59:59;13.40;97.20
2653;DHT22;1336;48.692;9.144;2022-11-15T09:00:50;13.50;97.20
2653;DHT22;1336;48.692;9.144;2022-11-15T09:01:41;13.60;97.20
2653;DHT22;1336;48.692;9.144;2022-11-15T09:02:33;13.60;97.20
2653;DHT22;1336;48.692;9.144;2022-11-15T09:03:23;13.70;97.20
2653;DHT22;1336;48.692;9.144;2022-11-15T09:04:15;13.80;97.20
2653;DHT22;1336;48.692;9.144;2022-11-15T09:05:07;13.80;97.20
2653;DHT22;1336;48.692;9.144;2022-11-15T09:06:01;13.90;97.20
2653;DHT22;1336;48.692;9.144;2022-11-15T09:06:51;14.00;97.20
2653;DHT22;1336;48.692;9.144;2022-11-15T09:07:43;14.00;97.20
2653;DHT22;1336;48.692;9.144;2022-11-15T09:08:34;14.10;97.20
2653;DHT22;1336;48.692;9.144;2022-11-15T09:09:25;14.10;97.20
2653;DHT22;1336;48.692;9.144;2022-11-15T09:10:16;14.20;97.20
2653;DHT22;1336;48.692;9.144;2022-11-15T09:11:09;14.20;97.20
2653;DHT22;1336;48.692;9.144;2022-11-15T09:12:00;14.30;97.20
2653;DHT22;1336;48.692;9.144;2022-11-15T09:12:52;14.30;97.20
2653;DHT22;1336;48.692;9.144;2022-11-15T09:13:43;14.30;97.20
2653;DHT22;1336;48.692;9.144;2022-11-15T09:14:34;14.40;97.20
2653;DHT22;1336;48.692;9.144;2022-11-15T09:15:25;14.40;97.20
2653;DHT22;1336;48.692;9.144;2022-11-15T09:16:17;14.40;97.20
2653;DHT22;1336;48.692;9.144;2022-11-15T09:17:08;14.40;97.20
2653;DHT22;1336;48.692;9.144;2022-11-15T09:18:00;14.40;97.20
2653;DHT22;1336;48.692;9.144;2022-11-15T09:18:50;14.50;97.20
2653;DHT22;1336;48.692;9.144;2022-11-15T09:19:43;14.40;97.20
2653;DHT22;1336;48.692;9.144;2022-11-15T09:20:34;14.50;97.20
2653;DHT22;1336;48.692;9.144;2022-11-15T09:21:28;14.50;97.20
2653;DHT22;1336;48.692;9.144;2022-11-15T09:22:20;14.50;97.20
2653;DHT22;1336;48.692;9.144;2022-11-15T09:23:11;14.50;97.20
2653;DHT22;1336;48.692;9.144;2022-11-15T09:24:03;14.50;97.20
2653;DHT22;1336;48.692;9.144;2022-11-15T09:24:54;14.50;97.20
2653;DHT22;1336;48.692;9.144;2022-11-15T09:25:46;14.60;97.20
2653;DHT22;1336;48.692;9.144;2022-11-15T09:26:37;14.60;97.20
2653;DHT22;1336;48.692;9.144;2022-11-15T09:27:29;14.60;97.20
2653;DHT22;1336;48.692;9.144;2022-11-15T09:28:20;14.70;97.20
2653;DHT22;1336;48.692;9.144;2022-11-15T09:29:12;14.70;97.20
2653;DHT22;1336;48.692;9.144;2022-11-15T09:30:03;14.90;97.20
2653;DHT22;1336;48.692;9.144;2022-11-15T09:30:56;14.90;97.20
2653;DHT22;1336;48.692;9.144;2022-11-15T09:31:48;15.00;97.20
2653;DHT22;1336;48.692;9.144;2022-11-15T09:32:39;15.10;97.20
2653;DHT22;1336;48.692;9.144;2022-11-15T09:33:30;15.20;97.20
2653;DHT22;1336;48.692;9.144;2022-11-15T09:34:22;15.30;97.20
2653;DHT22;1336;48.692;9.144;2022-11-15T09:35:13;15.40;97.20
2653;DHT22;1336;48.692;9.144;2022-11-15T09:36:07;15.50;97.20
2653;DHT22;1336;48.692;9.144;2022-11-15T09:36:59;15.60;97.20
2653;DHT22;1336;48.692;9.144;2022-11-15T09:37:51;15.70;97.20
2653;DHT22;1336;48.692;9.144;2022-11-15T09:38:41;15.80;97.20
2653;DHT22;1336;48.692;9.144;2022-11-15T09:39:33;15.90;97.20
2653;DHT22;1336;48.692;9.144;2022-11-15T09:40:24;16.00;97.20
2653;DHT22;1336;48.692;9.144;2022-11-15T09:41:38;16.10;97.20
2653;DHT22;1336;48.692;9.144;2022-11-15T09:42:48;16.20;97.20
2653;DHT22;1336;48.692;9.144;2022-11-15T09:43:47;16.30;97.20
2653;DHT22;1336;48.692;9.144;2022-11-15T09:44:59;16.40;97.20
2653;DHT22;1336;48.692;9.144;2022-11-15T09:46:04;16.50;97.20
2653;DHT22;1336;48.692;9.144;2022-11-15T09:47:05;16.60;97.20
2653;DHT22;1336;48.692;9.144;2022-11-15T09:48:13;16.70;97.20
2653;DHT22;1336;48.692;9.144;2022-11-15T09:49:09;16.70;97.20
2653;DHT22;1336;48.692;9.144;2022-11-15T09:50:09;16.80;97.20
2653;DHT22;1336;48.692;9.144;2022-11-15T09:51:03;16.90;97.20
2653;DHT22;1336;48.692;9.144;2022-11-15T09:51:54;16.90;97.20
2653;DHT22;1336;48.692;9.144;2022-11-15T09:52:48;16.90;97.20
2653;DHT22;1336;48.692;9.144;2022-11-15T09:53:55;17.00;97.20
2653;DHT22;1336;48.692;9.144;2022-11-15T09:54:49;17.00;97.20
2653;DHT22;1336;48.692;9.144;2022-11-15T09:55:58;16.90;97.20
2653;DHT22;1336;48.692;9.144;2022-11-15T09:56:51;16.90;97.20
2653;DHT22;1336;48.692;9.144;2022-11-15T09:57:49;16.90;97.20
2653;DHT22;1336;48.692;9.144;2022-11-15T09:58:49;16.80;97.20
2653;DHT22;1336;48.692;9.144;2022-11-15T09:59:52;16.80;97.20
2653;DHT22;1336;48.692;9.144;2022-11-15T10:00:46;16.70;97.20
2653;DHT22;1336;48.692;9.144;2022-11-15T10:01:48;16.70;97.20
2653;DHT22;1336;48.692;9.144;2022-11-15T10:03:06;16.70;97.20
2653;DHT22;1336;48.692;9.144;2022-11-15T10:03:59;16.60;97.20
2653;DHT22;1336;48.692;9.144;2022-11-15T10:04:51;16.60;97.20
2653;DHT22;1336;48.692;9.144;2022-11-15T10:05:44;16.60;97.20
2653;DHT22;1336;48.692;9.144;2022-11-15T10:06:39;16.60;97.20
2653;DHT22;1336;48.692;9.144;2022-11-15T10:07:36;16.50;97.20
2653;DHT22;1336;48.692;9.144;2022-11-15T10:08:46;16.50;97.20
2653;DHT22;1336;48.692;9.144;2022-11-15T10:09:45;16.40;97.20
2653;DHT22;1336;48.692;9.144;2022-11-15T10:10:40;16.30;97.20
2653;DHT22;1336;48.692;9.144;2022-11-15T10:11:35;16.30;97.20
2653;DHT22;1336;48.692;9.144;2022-11-15T10:12:27;16.20;97.20
2653;DHT22;1336;48.692;9.144;2022-11-15T10:13:23;16.10;97.20
2653;DHT22;1336;48.692;9.144;2022-11-15T10:14:17;16.00;97.20
2653;DHT22;1336;48.692;9.144;2022-11-15T10:15:14;16.00;97.20
2653;DHT22;1336;48.692;9.144;2022-11-15T10:16:12;15.90;97.20
2653;DHT22;1336;48.692;9.144;2022-11-15T10:17:43;15.90;97.20
2653;DHT22;1336;48.692;9.144;2022-11-15T10:18:49;15.80;97.20
2653;DHT22;1336;48.692;9.144;2022-11-15T10:19:50;15.70;97.20
2653;DHT22;1336;48.692;9.144;2022-11-15T10:20:48;15.70;97.20
2653;DHT22;1336;48.692;9.144;2022-11-15T10:21:46;15.70;97.20
2653;DHT22;1336;48.692;9.144;2022-11-15T10:22:45;15.60;97.20
2653;DHT22;1336;48.692;9.144;2022-11-15T10:23:39;15.60;97.20
2653;DHT22;1336;48.692;9.144;2022-11-15T10:24:34;15.50;97.20
2653;DHT22;1336;48.692;9.144;2022-11-15T10:25:28;15.50;97.20
2653;DHT22;1336;48.692;9.144;2022-11-15T10:26:21;15.50;97.20
2653;DHT22;1336;48.692;9.144;2022-11-15T10:27:15;15.40;97.20
2653;DHT22;1336;48.692;9.144;2022-11-15T10:28:15;15.40;97.20
2653;DHT22;1336;48.692;9.144;2022-11-15T10:29:06;15.30;97.20
2653;DHT22;1336;48.692;9.144;2022-11-15T10:29:57;15.30;97.20
2653;DHT22;1336;48.692;9.144;2022-11-15T10:30:50;15.30;97.20
2653;DHT22;1336;48.692;9.144;2022-11-15T10:31:42;15.30;97.20
2653;DHT22;1336;48.692;9.144;2022-11-15T10:32:33;15.30;97.20
2653;DHT22;1336;48.692;9.144;2022-11-15T10:33:31;15.30;97.20
2653;DHT22;1336;48.692;9.144;2022-11-15T10:34:24;15.20;97.20
2653;DHT22;1336;48.692;9.144;2022-11-15T10:35:21;15.20;97.20
2653;DHT22;1336;48.692;9.144;2022-11-15T10:36:23;15.20;97.20
2653;DHT22;1336;48.692;9.144;2022-11-15T10:37:27;15.20;97.20
2653;DHT22;1336;48.692;9.144;2022-11-15T10:38:19;15.20;97.20
2653;DHT22;1336;48.692;9.144;2022-11-15T10:39:13;15.20;97.20
2653;DHT22;1336;48.692;9.144;2022-11-15T10:40:12;15.20;97.20
2653;DHT22;1336;48.692;9.144;2022-11-15T10:41:07;15.20;97.20
2653;DHT22;1336;48.692;9.144;2022-11-15T10:42:15;15.10;97.20
2653;DHT22;1336;48.692;9.144;2022-11-15T10:43:15;15.10;97.20
2653;DHT22;1336;48.692;9.144;2022-11-15T10:44:28;15.10;97.20
2653;DHT22;1336;48.692;9.144;2022-11-15T10:45:27;15.10;97.20
2653;DHT22;1336;48.692;9.144;2022-11-15T10:46:20;15.00;97.20
2653;DHT22;1336;48.692;9.144;2022-11-15T10:47:33;15.00;97.20
2653;DHT22;1336;48.692;9.144;2022-11-15T10:48:25;15.00;97.20
2653;DHT22;1336;48.692;9.144;2022-11-15T10:49:18;15.00;97.20
2653;DHT22;1336;48.692;9.144;2022-11-15T10:50:26;15.00;97.20
2653;DHT22;1336;48.692;9.144;2022-11-15T10:51:21;15.00;97.20
2653;DHT22;1336;48.692;9.144;2022-11-15T10:52:16;15.00;97.20
2653;DHT22;1336;48.692;9.144;2022-11-15T10:53:17;14.90;97.20
2653;DHT22;1336;48.692;9.144;2022-11-15T10:54:11;14.90;97.20
2653;DHT22;1336;48.692;9.144;2022-11-15T10:55:20;14.90;97.20
2653;DHT22;1336;48.692;9.144;2022-11-15T10:56:13;14.90;97.20
2653;DHT22;1336;48.692;9.144;2022-11-15T10:57:10;14.90;97.20
2653;DHT22;1336;48.692;9.144;2022-11-15T10:58:04;14.90;97.20
2653;DHT22;1336;48.692;9.144;2022-11-15T10:58:57;14.90;97.20
2653;DHT22;1336;48.692;9.144;2022-11-15T10:59:49;14.80;97.20
2653;DHT22;1336;48.692;9.144;2022-11-15T11:00:42;14.80;97.20
2653;DHT22;1336;48.692;9.144;2022-11-15T11:01:45;14.80;97.20
2653;DHT22;1336;48.692;9.144;2022-11-15T11:02:39;14.80;97.20
2653;DHT22;1336;48.692;9.144;2022-11-15T11:03:35;14.80;97.20
2653;DHT22;1336;48.692;9.144;2022-11-15T11:04:28;14.80;97.20
2653;DHT22;1336;48.692;9.144;2022-11-15T11:05:27;14.70;97.20
2653;DHT22;1336;48.692;9.144;2022-11-15T11:06:19;14.70;97.20
2653;DHT22;1336;48.692;9.144;2022-11-15T11:07:21;14.70;97.20
2653;DHT22;1336;48.692;9.144;2022-11-15T11:08:22;14.70;97.20
2653;DHT22;1336;48.692;9.144;2022-11-15T11:09:23;14.70;97.20
2653;DHT22;1336;48.692;9.144;2022-11-15T11:10:20;14.70;97.20
2653;DHT22;1336;48.692;9.144;2022-11-15T11:11:12;14.70;97.20
2653;DHT22;1336;48.692;9.144;2022-11-15T11:12:04;14.70;97.20
2653;DHT22;1336;48.692;9.144;2022-11-15T11:13:12;14.70;97.20
2653;DHT22;1336;48.692;9.144;2022-11-15T11:14:12;14.70;97.20
2653;DHT22;1336;48.692;9.144;2022-11-15T11:15:11;14.70;97.20
2653;DHT22;1336;48.692;9.144;2022-11-15T11:16:21;14.70;97.20
2653;DHT22;1336;48.692;9.144;2022-11-15T11:17:20;14.70;97.20
2653;DHT22;1336;48.692;9.144;2022-11-15T11:18:21;14.70;97.20
2653;DHT22;1336;48.692;9.144;2022-11-15T11:19:31;14.70;97.20
2653;DHT22;1336;48.692;9.144;2022-11-15T11:20:30;14.70;97.20
2653;DHT22;1336;48.692;9.144;2022-11-15T11:21:29;14.70;97.20
2653;DHT22;1336;48.692;9.144;2022-11-15T11:22:26;14.70;97.20
2653;DHT22;1336;48.692;9.144;2022-11-15T11:23:36;14.70;97.20
2653;DHT22;1336;48.692;9.144;2022-11-15T11:24:34;14.80;97.20
2653;DHT22;1336;48.692;9.144;2022-11-15T11:25:33;14.80;97.20
2653;DHT22;1336;48.692;9.144;2022-11-15T11:26:40;14.80;97.20
2653;DHT22;1336;48.692;9.144;2022-11-15T11:27:42;14.70;97.20
2653;DHT22;1336;48.692;9.144;2022-11-15T11:28:40;14.80;97.20
2653;DHT22;1336;48.692;9.144;2022-11-15T11:29:40;14.80;97.20
2653;DHT22;1336;48.692;9.144;2022-11-15T11:30:43;14.80;97.20
2653;DHT22;1336;48.692;9.144;2022-11-15T11:31:45;14.80;97.20
2653;DHT22;1336;48.692;9.144;2022-11-15T11:32:54;14.80;97.20
2653;DHT22;1336;48.692;9.144;2022-11-15T11:33:52;14.80;97.20
2653;DHT22;1336;48.692;9.144;2022-11-15T11:34:56;14.80;97.20
2653;DHT22;1336;48.692;9.144;2022-11-15T11:35:55;14.80;97.20
2653;DHT22;1336;48.692;9.144;2022-11-15T11:36:54;14.80;97.20
2653;DHT22;1336;48.692;9.144;2022-11-15T11:37:51;14.80;97.20
2653;DHT22;1336;48.692;9.144;2022-11-15T11:38:55;14.80;97.20
2653;DHT22;1336;48.692;9.144;2022-11-15T11:39:59;14.80;97.20
2653;DHT22;1336;48.692;9.144;2022-11-15T11:41:01;14.80;97.20
2653;DHT22;1336;48.692;9.144;2022-11-15T11:42:01;14.90;97.20
2653;DHT22;1336;48.692;9.144;2022-11-15T11:42:57;14.90;97.20
2653;DHT22;1336;48.692;9.144;2022-11-15T11:43:57;14.90;97.20
2653;DHT22;1336;48.692;9.144;2022-11-15T11:44:55;14.90;97.20
2653;DHT22;1336;48.692;9.144;2022-11-15T11:47:11;14.90;97.20
2653;DHT22;1336;48.692;9.144;2022-11-15T11:48:13;14.90;97.20
2653;DHT22;1336;48.692;9.144;2022-11-15T11:49:09;14.90;97.20
2653;DHT22;1336;48.692;9.144;2022-11-15T11:50:11;14.90;97.20
2653;DHT22;1336;48.692;9.144;2022-11-15T11:51:14;14.90;97.20
2653;DHT22;1336;48.692;9.144;2022-11-15T11:52:10;14.90;97.20
2653;DHT22;1336;48.692;9.144;2022-11-15T11:53:05;14.90;97.20
2653;DHT22;1336;48.692;9.144;2022-11-15T11:54:03;15.00;97.20
2653;DHT22;1336;48.692;9.144;2022-11-15T11:55:03;15.00;97.20
2653;DHT22;1336;48.692;9.144;2022-11-15T11:55:58;15.00;97.20
2653;DHT22;1336;48.692;9.144;2022-11-15T11:56:54;15.00;97.20
2653;DHT22;1336;48.692;9.144;2022-11-15T11:57:49;15.10;97.20